Time;durP1;ratioP1;P1;durP2;ratioP2;P2;SDS_P1;SDS_P2;PMS_P1;PMS_P2;Temp;Humidity;BMP_temperature;BMP_pressure;BME280_temperature;BME280_humidity;BME280_pressure;Samples;Min_cycle;Max_cycle;Signal;HPM_P1;HPM_P2
2024/04/17 00:01:32;;;;;;;19.43;6.33;;;5.70;99.90;;;;;;5453551;26;20241;-68
2024/04/17 00:04:02;;;;;;;22.93;6.03;;;5.80;99.90;;;;;;5448445;26;20735;-68
2024/04/17 00:06:29;;;;;;;21.67;6.13;;;5.80;99.90;;;;;;5458163;26;20260;-68
2024/04/17 00:09:00;;;;;;;19.40;5.87;;;5.90;99.90;;;;;;5445932;26;20304;-68
2024/04/17 00:11:30;;;;;;;26.90;5.77;;;5.90;99.90;;;;;;5452142;26;20257;-68
2024/04/17 00:14:00;;;;;;;17.27;6.33;;;5.90;99.90;;;;;;5448634;26;20260;-68
2024/04/17 00:16:27;;;;;;;20.63;6.20;;;6.00;99.90;;;;;;5450277;26;20241;-68
2024/04/17 00:18:58;;;;;;;21.87;6.20;;;6.10;99.90;;;;;;5455554;25;20831;-68
2024/04/17 00:21:25;;;;;;;16.87;6.10;;;6.10;99.90;;;;;;5457733;26;20341;-68
2024/04/17 00:23:55;;;;;;;19.40;5.67;;;6.10;99.90;;;;;;5449875;26;20292;-68
2024/04/17 00:26:23;;;;;;;28.13;6.03;;;6.10;99.90;;;;;;5459734;25;20290;-68
2024/04/17 00:28:56;;;;;;;20.63;5.70;;;6.20;99.90;;;;;;5452739;26;20239;-67
2024/04/17 00:31:23;;;;;;;23.27;5.40;;;6.20;99.90;;;;;;5461184;26;20228;-68
2024/04/17 00:33:54;;;;;;;23.33;5.23;;;6.20;99.90;;;;;;5437767;26;20260;-67
2024/04/17 00:36:21;;;;;;;12.60;4.70;;;6.20;99.90;;;;;;5451448;26;20317;-68
2024/04/17 00:38:51;;;;;;;23.03;5.80;;;6.20;99.90;;;;;;5437249;26;20292;-68
2024/04/17 00:41:19;;;;;;;22.77;5.17;;;6.20;99.90;;;;;;5449564;26;20649;-68
2024/04/17 00:43:49;;;;;;;23.17;4.70;;;6.20;99.90;;;;;;5448097;25;20293;-68
2024/04/17 00:46:19;;;;;;;15.70;4.70;;;6.20;99.90;;;;;;5456150;26;20272;-68
2024/04/17 00:48:49;;;;;;;17.03;4.63;;;6.20;99.90;;;;;;5445598;26;20747;-68
2024/04/17 00:51:17;;;;;;;13.80;5.00;;;6.20;99.90;;;;;;5442832;26;20300;-68
2024/04/17 00:53:47;;;;;;;22.40;5.53;;;6.20;99.90;;;;;;5449493;26;20265;-68
2024/04/17 00:56:15;;;;;;;9.57;4.63;;;6.20;99.90;;;;;;5449500;26;21192;-68
2024/04/17 00:58:45;;;;;;;18.07;4.60;;;6.20;99.90;;;;;;5461897;26;20237;-67
2024/04/17 01:01:13;;;;;;;15.23;4.47;;;6.20;99.90;;;;;;5448977;26;20237;-68
2024/04/17 01:03:46;;;;;;;17.23;4.50;;;6.30;99.90;;;;;;5458903;25;20249;-68
2024/04/17 01:06:16;;;;;;;9.83;4.23;;;6.30;99.90;;;;;;5447544;26;20934;-68
2024/04/17 01:08:46;;;;;;;9.63;4.07;;;6.30;99.90;;;;;;5449455;26;20257;-68
2024/04/17 01:11:14;;;;;;;10.50;3.43;;;6.30;99.90;;;;;;5452058;25;20640;-68
2024/04/17 01:13:44;;;;;;;13.13;4.30;;;6.30;99.90;;;;;;5455531;26;20600;-68
2024/04/17 01:16:12;;;;;;;8.97;3.50;;;6.30;99.90;;;;;;5456184;26;20280;-68
2024/04/17 01:18:46;;;;;;;10.17;3.20;;;6.40;99.90;;;;;;5449304;25;20300;-68
2024/04/17 01:21:14;;;;;;;10.93;3.70;;;6.40;99.90;;;;;;5444453;26;20255;-68
2024/04/17 01:23:44;;;;;;;10.27;3.93;;;6.50;99.90;;;;;;5447326;25;20256;-68
2024/04/17 01:26:14;;;;;;;17.67;3.70;;;6.50;99.90;;;;;;5454369;25;20314;-67
2024/04/17 01:28:44;;;;;;;13.77;3.33;;;6.60;99.90;;;;;;5444952;26;20237;-66
2024/04/17 01:31:12;;;;;;;11.10;3.70;;;6.60;99.90;;;;;;5451062;26;20275;-67
2024/04/17 01:33:42;;;;;;;6.37;2.70;;;6.60;99.90;;;;;;5454876;26;20296;-67
2024/04/17 01:36:11;;;;;;;12.67;3.10;;;6.60;99.90;;;;;;5454472;26;20260;-67
2024/04/17 01:38:41;;;;;;;9.03;2.90;;;6.60;99.90;;;;;;5441409;26;20253;-67
2024/04/17 01:41:09;;;;;;;10.80;3.33;;;6.60;99.90;;;;;;5456195;25;20307;-67
2024/04/17 01:43:42;;;;;;;7.83;2.97;;;6.60;99.90;;;;;;5440067;26;20875;-67
2024/04/17 01:46:09;;;;;;;5.07;2.63;;;6.60;99.90;;;;;;5447100;26;20275;-67
2024/04/17 01:48:40;;;;;;;7.67;2.23;;;6.60;99.90;;;;;;5447735;26;20312;-67
2024/04/17 01:51:09;;;;;;;8.70;2.60;;;6.60;99.90;;;;;;5446171;26;20338;-67
2024/04/17 01:53:40;;;;;;;2.93;2.20;;;6.60;99.90;;;;;;5449046;26;20588;-67
2024/04/17 01:56:07;;;;;;;8.23;2.33;;;6.60;99.90;;;;;;5458391;26;20708;-67
2024/04/17 01:58:37;;;;;;;4.57;2.00;;;6.60;99.90;;;;;;5447084;26;20241;-68
2024/04/17 02:01:08;;;;;;;3.57;2.30;;;6.70;99.90;;;;;;5446655;26;20249;-68
2024/04/17 02:03:39;;;;;;;7.03;2.20;;;6.60;99.90;;;;;;5447103;26;20336;-67
2024/04/17 02:06:07;;;;;;;7.83;2.10;;;6.70;99.90;;;;;;5448204;26;20261;-67
2024/04/17 02:08:37;;;;;;;6.00;2.13;;;6.70;99.90;;;;;;5446055;26;20296;-67
2024/04/17 02:11:05;;;;;;;5.97;2.30;;;6.70;99.90;;;;;;5444370;26;21129;-68
2024/04/17 02:13:36;;;;;;;5.20;2.33;;;6.70;99.90;;;;;;5443464;26;20332;-68
2024/04/17 02:16:04;;;;;;;5.50;2.00;;;6.70;99.90;;;;;;5446503;25;20252;-67
2024/04/17 02:18:37;;;;;;;4.00;2.77;;;6.70;99.90;;;;;;5453633;26;20313;-67
2024/04/17 02:21:05;;;;;;;7.63;2.60;;;6.70;99.90;;;;;;5448258;26;20252;-67
2024/04/17 02:23:35;;;;;;;4.83;2.20;;;6.70;99.90;;;;;;5449118;26;20291;-67
2024/04/17 02:26:03;;;;;;;2.60;2.40;;;6.70;99.90;;;;;;5453936;26;20257;-67
2024/04/17 02:28:33;;;;;;;3.90;2.20;;;6.70;99.90;;;;;;5446912;26;20288;-68
2024/04/17 02:31:01;;;;;;;4.27;2.20;;;6.70;99.90;;;;;;5446841;26;20287;-68
2024/04/17 02:33:31;;;;;;;7.17;2.60;;;6.60;99.90;;;;;;5454858;26;20335;-67
2024/04/17 02:36:02;;;;;;;4.03;2.27;;;6.60;99.90;;;;;;5450936;26;20260;-68
2024/04/17 02:38:33;;;;;;;7.37;2.40;;;6.60;99.90;;;;;;5449201;26;20269;-68
2024/04/17 02:41:00;;;;;;;6.30;2.80;;;6.60;99.90;;;;;;5462712;26;20269;-68
2024/04/17 02:43:31;;;;;;;6.00;2.40;;;6.50;99.90;;;;;;5458506;26;20293;-68
2024/04/17 02:45:58;;;;;;;7.30;2.40;;;6.50;99.90;;;;;;5447699;26;20345;-68
2024/04/17 02:48:29;;;;;;;6.67;2.73;;;6.50;99.90;;;;;;5463441;26;20635;-68
2024/04/17 02:50:56;;;;;;;5.33;2.50;;;6.50;99.90;;;;;;5454872;26;20999;-68
2024/04/17 02:53:29;;;;;;;6.50;2.40;;;6.50;99.90;;;;;;5458749;26;20303;-68
2024/04/17 02:55:59;;;;;;;4.23;2.30;;;6.50;99.90;;;;;;5456158;26;20296;-67
2024/04/17 02:58:29;;;;;;;3.43;2.60;;;6.50;99.90;;;;;;5449235;26;20292;-68
2024/04/17 03:00:57;;;;;;;8.53;2.53;;;6.50;99.90;;;;;;5449404;25;20325;-68
2024/04/17 03:03:28;;;;;;;7.63;3.07;;;6.50;99.90;;;;;;5453529;25;20340;-68
2024/04/17 03:05:59;;;;;;;6.37;2.90;;;6.60;99.90;;;;;;5455223;26;20257;-68
2024/04/17 03:08:32;;;;;;;4.70;2.83;;;6.60;99.90;;;;;;5438931;26;20486;-68
2024/04/17 03:11:01;;;;;;;9.57;3.60;;;6.60;99.90;;;;;;5450389;26;20261;-67
2024/04/17 03:13:31;;;;;;;4.67;2.70;;;6.60;99.90;;;;;;5447066;26;20245;-68
2024/04/17 03:16:03;;;;;;;7.30;3.30;;;6.70;99.90;;;;;;5455556;26;20248;-68
2024/04/17 03:18:33;;;;;;;13.37;3.17;;;6.70;99.90;;;;;;5451715;26;20250;-68
2024/04/17 03:21:01;;;;;;;13.30;3.70;;;6.70;99.90;;;;;;5456162;26;20291;-67
2024/04/17 03:23:34;;;;;;;6.17;3.10;;;6.70;99.90;;;;;;5447308;26;20265;-68
2024/04/17 03:26:02;;;;;;;10.07;3.37;;;6.70;99.90;;;;;;5460889;25;20260;-67
2024/04/17 03:28:32;;;;;;;5.13;3.23;;;6.80;99.90;;;;;;5449684;26;20841;-68
2024/04/17 03:31:00;;;;;;;11.97;3.57;;;6.70;99.90;;;;;;5449510;26;20623;-67
2024/04/17 03:33:33;;;;;;;8.53;3.03;;;6.70;99.90;;;;;;5453760;26;20252;-67
2024/04/17 03:36:01;;;;;;;6.83;3.10;;;6.70;99.90;;;;;;5452222;26;20249;-67
2024/04/17 03:38:33;;;;;;;7.17;3.00;;;6.70;99.90;;;;;;5445714;26;20354;-67
2024/04/17 03:41:04;;;;;;;8.67;3.47;;;6.70;99.90;;;;;;5459853;26;20261;-67
2024/04/17 03:43:34;;;;;;;7.10;3.60;;;6.70;99.90;;;;;;5456857;26;20280;-67
2024/04/17 03:46:05;;;;;;;8.03;3.20;;;6.70;99.90;;;;;;5449772;26;20245;-67
2024/04/17 03:48:35;;;;;;;7.63;3.70;;;6.70;99.90;;;;;;5448076;26;20672;-68
2024/04/17 03:51:05;;;;;;;11.93;4.00;;;6.70;99.90;;;;;;5456330;26;20364;-67
2024/04/17 03:53:35;;;;;;;6.97;3.73;;;6.70;99.90;;;;;;5446423;26;20724;-67
2024/04/17 03:56:06;;;;;;;7.30;3.47;;;6.60;99.90;;;;;;5464006;26;20252;-67
2024/04/17 03:58:33;;;;;;;7.73;3.73;;;6.50;99.90;;;;;;5457988;26;20279;-67
2024/04/17 04:01:03;;;;;;;9.17;4.13;;;6.50;99.90;;;;;;5458058;26;20249;-67
2024/04/17 04:03:31;;;;;;;8.97;4.00;;;6.50;99.90;;;;;;5440168;26;20253;-67
2024/04/17 04:06:02;;;;;;;10.53;4.37;;;6.50;99.90;;;;;;5451946;26;20978;-67
2024/04/17 04:08:29;;;;;;;6.13;4.20;;;6.50;99.90;;;;;;5439336;26;20258;-67
2024/04/17 04:11:02;;;;;;;9.53;4.23;;;6.50;99.90;;;;;;5447774;26;20275;-67
2024/04/17 04:13:30;;;;;;;8.73;3.83;;;6.40;99.90;;;;;;5447673;26;20285;-67
2024/04/17 04:16:01;;;;;;;4.47;4.03;;;6.40;99.90;;;;;;5452439;26;20261;-67
2024/04/17 04:18:29;;;;;;;9.10;4.33;;;6.30;99.90;;;;;;5456060;26;20736;-67
2024/04/17 04:21:00;;;;;;;5.50;4.10;;;6.30;99.90;;;;;;5452017;26;20274;-67
2024/04/17 04:23:27;;;;;;;7.73;4.17;;;6.30;99.90;;;;;;5453564;26;20258;-67
2024/04/17 04:25:57;;;;;;;6.50;3.93;;;6.30;99.90;;;;;;5458698;25;20598;-67
2024/04/17 04:28:27;;;;;;;10.87;5.00;;;6.20;99.90;;;;;;5451849;26;20330;-67
2024/04/17 04:30:58;;;;;;;7.03;3.93;;;6.20;99.90;;;;;;5450988;25;20253;-68
2024/04/17 04:33:25;;;;;;;10.87;4.27;;;6.30;99.90;;;;;;5443683;26;20253;-67
2024/04/17 04:35:55;;;;;;;13.87;4.50;;;6.30;99.90;;;;;;5462551;26;20268;-67
2024/04/17 04:38:23;;;;;;;10.30;4.63;;;6.30;99.90;;;;;;5448593;26;20261;-67
2024/04/17 04:40:53;;;;;;;7.90;4.30;;;6.30;99.90;;;;;;5444988;26;20268;-66
2024/04/17 04:43:21;;;;;;;7.87;4.70;;;6.20;99.90;;;;;;5440987;26;20285;-67
2024/04/17 04:45:55;;;;;;;13.03;4.93;;;6.20;99.90;;;;;;5448560;26;20262;-67
2024/04/17 04:48:22;;;;;;;7.23;4.50;;;6.20;99.90;;;;;;5448276;26;20716;-67
2024/04/17 04:50:53;;;;;;;10.57;4.40;;;6.20;99.90;;;;;;5452247;25;20254;-67
2024/04/17 04:53:20;;;;;;;8.13;5.10;;;6.10;99.90;;;;;;5440202;26;20314;-67
2024/04/17 04:55:58;;;;;;;13.57;5.33;;;6.10;99.90;;;;;;5450742;26;20280;-66
2024/04/17 04:58:26;;;;;;;9.20;5.20;;;6.10;99.90;;;;;;5447035;26;20335;-67
2024/04/17 05:00:59;;;;;;;12.07;5.67;;;6.10;99.90;;;;;;5460582;26;20268;-67
2024/04/17 05:03:26;;;;;;;8.97;4.60;;;6.10;99.90;;;;;;5447692;25;20264;-67
2024/04/17 05:05:57;;;;;;;8.47;4.70;;;6.10;99.90;;;;;;5447401;25;20300;-67
2024/04/17 05:08:24;;;;;;;11.27;4.87;;;6.10;99.90;;;;;;5438078;26;22167;-67
2024/04/17 05:10:54;;;;;;;13.53;4.73;;;6.10;99.90;;;;;;5452749;26;20241;-67
2024/04/17 05:13:22;;;;;;;10.70;5.20;;;6.10;99.90;;;;;;5455838;26;21271;-67
2024/04/17 05:15:53;;;;;;;10.60;5.90;;;6.10;99.90;;;;;;5445860;26;20317;-67
2024/04/17 05:18:23;;;;;;;10.60;5.43;;;6.10;99.90;;;;;;5446435;26;20755;-67
2024/04/17 05:20:53;;;;;;;11.33;6.20;;;6.20;99.90;;;;;;5451226;26;20259;-67
2024/04/17 05:23:21;;;;;;;11.53;4.70;;;6.20;99.90;;;;;;5444805;26;20296;-67
2024/04/17 05:25:51;;;;;;;9.97;4.87;;;6.30;99.90;;;;;;5451833;26;20241;-67
2024/04/17 05:28:18;;;;;;;5.27;4.23;;;6.30;99.90;;;;;;5430958;26;20229;-67
2024/04/17 05:31:00;;;;;;;13.07;6.97;;;6.30;99.90;;;;;;5444853;26;20253;-67
2024/04/17 05:33:31;;;;;;;11.07;6.53;;;6.40;99.90;;;;;;5448758;26;20252;-67
2024/04/17 05:36:02;;;;;;;7.37;4.70;;;6.40;99.90;;;;;;5452324;26;20302;-67
2024/04/17 05:38:29;;;;;;;9.00;5.00;;;6.50;99.90;;;;;;5447051;26;20709;-67
2024/04/17 05:40:59;;;;;;;19.00;6.80;;;6.50;99.90;;;;;;5454686;26;20359;-67
2024/04/17 05:43:27;;;;;;;20.80;8.07;;;6.70;99.90;;;;;;5440344;26;20229;-67
2024/04/17 05:45:57;;;;;;;13.50;6.77;;;6.80;99.90;;;;;;5447750;25;21064;-67
2024/04/17 05:48:25;;;;;;;15.83;8.07;;;6.90;99.90;;;;;;5430380;26;20569;-67
2024/04/17 05:50:57;;;;;;;8.87;5.67;;;7.00;99.90;;;;;;5447313;26;20253;-67
2024/04/17 05:53:26;;;;;;;16.67;7.23;;;7.00;99.90;;;;;;5456521;26;20303;-67
2024/04/17 05:55:56;;;;;;;25.70;8.57;;;7.10;99.90;;;;;;5460234;26;20707;-67
2024/04/17 05:58:23;;;;;;;28.37;10.10;;;7.20;99.90;;;;;;5458926;26;20281;-67
2024/04/17 06:00:53;;;;;;;33.87;11.13;;;7.20;99.90;;;;;;5450222;26;20751;-66
2024/04/17 06:03:21;;;;;;;16.73;7.70;;;7.20;99.90;;;;;;5442007;26;20252;-67
2024/04/17 06:05:51;;;;;;;14.77;6.17;;;7.20;99.90;;;;;;5451738;26;20249;-67
2024/04/17 06:08:21;;;;;;;12.63;4.77;;;7.10;99.90;;;;;;5446269;26;20311;-67
2024/04/17 06:10:51;;;;;;;7.83;3.90;;;7.20;99.90;;;;;;5457299;26;20240;-67
2024/04/17 06:13:19;;;;;;;14.33;5.77;;;7.30;99.90;;;;;;5451265;26;20279;-67
2024/04/17 06:15:49;;;;;;;20.63;5.80;;;7.30;99.90;;;;;;5454963;26;20288;-67
2024/04/17 06:18:16;;;;;;;6.83;4.13;;;7.40;99.90;;;;;;5459658;26;20265;-67
2024/04/17 06:20:46;;;;;;;11.83;4.53;;;7.50;99.90;;;;;;5450763;25;20287;-68
2024/04/17 06:23:14;;;;;;;11.33;4.23;;;7.60;99.90;;;;;;5446888;25;20257;-67
2024/04/17 06:25:48;;;;;;;13.23;4.67;;;7.60;99.90;;;;;;5448015;26;20245;-67
2024/04/17 06:28:16;;;;;;;13.57;4.53;;;7.60;99.90;;;;;;5459288;26;20237;-67
2024/04/17 06:30:46;;;;;;;20.07;5.93;;;7.60;99.90;;;;;;5462627;26;20251;-67
2024/04/17 06:33:14;;;;;;;18.43;6.13;;;7.60;99.90;;;;;;5457677;26;20313;-67
2024/04/17 06:35:44;;;;;;;19.40;6.70;;;7.60;99.90;;;;;;5465211;26;20300;-67
2024/04/17 06:38:12;;;;;;;18.60;5.80;;;7.70;99.90;;;;;;5455947;25;20337;-67
2024/04/17 06:40:42;;;;;;;16.33;5.67;;;7.70;99.90;;;;;;5464998;26;20237;-67
2024/04/17 06:43:12;;;;;;;17.13;5.30;;;7.70;99.90;;;;;;5452286;26;20280;-67
2024/04/17 06:45:44;;;;;;;20.43;5.17;;;7.80;99.90;;;;;;5453630;26;20272;-67
2024/04/17 06:48:13;;;;;;;14.67;4.30;;;7.90;99.90;;;;;;5451785;25;20252;-67
2024/04/17 06:50:45;;;;;;;15.00;5.37;;;7.80;99.90;;;;;;5456882;25;20249;-68
2024/04/17 06:53:13;;;;;;;19.30;4.50;;;7.80;99.90;;;;;;5461565;26;20257;-67
2024/04/17 06:55:44;;;;;;;9.27;3.67;;;7.80;99.90;;;;;;5459130;26;20240;-65
2024/04/17 06:58:14;;;;;;;12.83;3.37;;;7.80;99.90;;;;;;5466000;26;20236;-68
2024/04/17 07:00:44;;;;;;;12.10;3.50;;;7.80;99.90;;;;;;5484793;26;20252;-68
2024/04/17 07:03:12;;;;;;;17.53;4.40;;;7.90;99.90;;;;;;5452330;25;20257;-68
2024/04/17 07:05:42;;;;;;;10.20;3.07;;;8.20;99.90;;;;;;5448119;26;20249;-68
2024/04/17 07:08:10;;;;;;;11.67;3.10;;;8.50;99.90;;;;;;5455420;25;20298;-67
2024/04/17 07:10:40;;;;;;;9.17;3.60;;;9.00;99.90;;;;;;5463332;26;20277;-68
2024/04/17 07:13:07;;;;;;;10.97;3.60;;;9.40;99.90;;;;;;5467887;26;20247;-67
2024/04/17 07:15:40;;;;;;;14.20;3.00;;;9.80;99.90;;;;;;5453221;25;20284;-67
2024/04/17 07:18:08;;;;;;;13.80;3.67;;;10.00;99.90;;;;;;5459579;26;20245;-67
2024/04/17 07:20:38;;;;;;;14.83;3.80;;;10.10;96.80;;;;;;5449471;26;20256;-67
2024/04/17 07:23:05;;;;;;;11.37;3.70;;;10.20;95.70;;;;;;5450966;26;20688;-67
2024/04/17 07:25:36;;;;;;;15.57;3.60;;;10.10;91.20;;;;;;5463782;26;20280;-67
2024/04/17 07:28:04;;;;;;;10.47;3.27;;;10.00;87.40;;;;;;5459341;26;20330;-67
2024/04/17 07:30:34;;;;;;;12.30;3.20;;;9.90;98.50;;;;;;5459241;26;21084;-67
2024/04/17 07:33:05;;;;;;;15.77;3.50;;;9.80;99.10;;;;;;5460031;25;20306;-67
2024/04/17 07:35:35;;;;;;;12.90;2.80;;;9.80;98.30;;;;;;5454996;26;20246;-68
2024/04/17 07:38:02;;;;;;;8.23;2.80;;;9.70;99.90;;;;;;5454484;26;20294;-67
2024/04/17 07:40:34;;;;;;;12.13;3.10;;;9.60;98.50;;;;;;5458466;26;20269;-67
2024/04/17 07:43:03;;;;;;;16.00;3.53;;;9.50;99.90;;;;;;5457195;26;20343;-67
2024/04/17 07:45:33;;;;;;;11.70;3.37;;;9.40;99.90;;;;;;5459783;26;20248;-67
2024/04/17 07:48:03;;;;;;;10.97;2.90;;;9.40;99.90;;;;;;5455720;26;20267;-67
2024/04/17 07:50:38;;;;;;;10.00;2.97;;;9.60;99.90;;;;;;5453965;26;20298;-67
2024/04/17 07:53:08;;;;;;;11.50;3.17;;;9.90;99.90;;;;;;5443870;26;20264;-68
2024/04/17 07:55:37;;;;;;;15.27;3.30;;;10.10;99.90;;;;;;5451987;26;20793;-67
2024/04/17 07:58:08;;;;;;;8.30;3.10;;;10.30;99.40;;;;;;5457659;26;20345;-67
2024/04/17 08:00:35;;;;;;;10.47;2.50;;;10.50;91.70;;;;;;5454385;26;20253;-67
2024/04/17 08:03:06;;;;;;;11.87;2.97;;;10.60;70.70;;;;;;5449452;26;20585;-67
2024/04/17 08:05:34;;;;;;;12.27;3.20;;;10.70;61.40;;;;;;5440897;26;20297;-67
2024/04/17 08:08:07;;;;;;;17.47;3.13;;;10.80;53.10;;;;;;5450441;26;20257;-67
2024/04/17 08:10:35;;;;;;;8.90;2.57;;;10.90;66.60;;;;;;5456887;26;20237;-67
2024/04/17 08:13:11;;;;;;;13.70;2.57;;;11.00;29.00;;;;;;5458408;26;20256;-67
2024/04/17 08:15:40;;;;;;;15.30;2.53;;;10.90;14.20;;;;;;5451411;26;20314;-67
2024/04/17 08:18:10;;;;;;;10.87;2.53;;;11.20;1.00;;;;;;5453595;26;20317;-67
2024/04/17 08:20:38;;;;;;;5.43;2.33;;;11.50;1.00;;;;;;5464174;25;20661;-68
2024/04/17 08:23:11;;;;;;;8.57;2.50;;;11.80;1.00;;;;;;5452460;26;20781;-67
2024/04/17 08:25:40;;;;;;;7.27;2.13;;;11.90;1.00;;;;;;5452165;26;20280;-67
2024/04/17 08:28:11;;;;;;;9.20;2.30;;;12.30;1.00;;;;;;5458120;26;20738;-67
2024/04/17 08:30:41;;;;;;;14.10;2.27;;;12.50;1.00;;;;;;5454103;26;20253;-67
2024/04/17 08:33:11;;;;;;;11.30;2.60;;;12.40;1.00;;;;;;5457581;26;20244;-67
2024/04/17 08:35:39;;;;;;;6.90;2.37;;;12.10;1.00;;;;;;5458211;26;20623;-67
2024/04/17 08:38:12;;;;;;;5.93;1.97;;;12.30;99.90;;;;;;5458145;26;20339;-67
2024/04/17 08:40:40;;;;;;;9.20;2.00;;;12.50;99.90;;;;;;5444373;26;20231;-67
2024/04/17 08:43:15;;;;;;;9.97;2.20;;;12.80;1.00;;;;;;5456158;26;20759;-67
2024/04/17 08:45:43;;;;;;;4.90;2.00;;;13.10;1.00;;;;;;5455236;26;20252;-68
2024/04/17 08:48:20;;;;;;;5.43;1.80;;;13.20;99.90;;;;;;5458154;25;20719;-67
2024/04/17 08:50:49;;;;;;;9.80;2.27;;;13.20;99.90;;;;;;5457914;26;20298;-67
2024/04/17 08:53:22;;;;;;;9.30;2.70;;;13.00;1.00;;;;;;5453780;26;20265;-67
2024/04/17 08:55:50;;;;;;;6.27;2.13;;;12.90;99.90;;;;;;5463987;26;20757;-67
2024/04/17 08:58:20;;;;;;;6.67;2.23;;;12.90;1.00;;;;;;5456617;26;20288;-67
2024/04/17 09:00:50;;;;;;;7.13;1.87;;;12.90;99.90;;;;;;5454605;26;20349;-67
2024/04/17 09:03:24;;;;;;;3.83;1.73;;;12.70;99.90;;;;;;5461248;26;20807;-67
2024/04/17 09:05:53;;;;;;;3.13;1.70;;;12.30;1.00;;;;;;5434916;25;20284;-68
2024/04/17 09:08:29;;;;;;;2.00;1.90;;;11.50;1.00;;;;;;5454019;26;20345;-66
2024/04/17 09:10:57;;;;;;;2.27;1.67;;;10.60;1.00;;;;;;5456763;26;20240;-65
2024/04/17 09:13:28;;;;;;;2.57;1.67;;;9.60;1.00;;;;;;5461243;26;20344;-66
2024/04/17 09:15:55;;;;;;;2.00;1.83;;;8.80;7.80;;;;;;5442233;26;20249;-67
2024/04/17 09:18:29;;;;;;;2.30;1.83;;;8.30;22.00;;;;;;5455620;26;20249;-66
2024/04/17 09:20:57;;;;;;;3.63;2.57;;;8.00;53.20;;;;;;5463061;25;20287;-66
2024/04/17 09:23:29;;;;;;;2.73;2.53;;;8.00;90.50;;;;;;5453368;26;20342;-65
2024/04/17 09:25:57;;;;;;;2.00;1.80;;;7.90;94.60;;;;;;5454328;25;20233;-66
2024/04/17 09:28:28;;;;;;;2.60;1.73;;;7.90;99.90;;;;;;5455958;26;20735;-66
2024/04/17 09:30:55;;;;;;;4.00;2.00;;;7.90;93.80;;;;;;5457183;26;20308;-65
2024/04/17 09:33:25;;;;;;;1.90;1.80;;;7.90;99.90;;;;;;5458554;26;20762;-66
2024/04/17 09:35:53;;;;;;;1.87;1.80;;;7.90;99.90;;;;;;5453958;26;20256;-66
2024/04/17 09:38:24;;;;;;;2.20;1.87;;;7.90;99.90;;;;;;5448274;25;20858;-66
2024/04/17 09:40:56;;;;;;;2.70;2.20;;;7.90;99.90;;;;;;5455757;26;20270;-65
2024/04/17 09:43:28;;;;;;;2.13;2.00;;;7.90;99.90;;;;;;5454471;26;20341;-66
2024/04/17 09:45:59;;;;;;;2.50;2.30;;;7.80;99.90;;;;;;5453427;26;20304;-65
2024/04/17 09:48:30;;;;;;;3.80;2.40;;;7.80;99.90;;;;;;5456538;26;20299;-66
2024/04/17 09:51:00;;;;;;;2.00;2.00;;;7.90;99.90;;;;;;5453720;26;20252;-66
2024/04/17 09:53:34;;;;;;;3.37;2.50;;;7.90;99.90;;;;;;5452812;26;20846;-66
2024/04/17 09:56:14;;;;;;;2.10;2.00;;;7.90;99.90;;;;;;5450620;26;20292;-65
2024/04/17 09:58:46;;;;;;;2.40;2.20;;;7.80;99.90;;;;;;5456405;26;20237;-64
2024/04/17 10:01:30;;;;;;;3.20;1.90;;;7.70;99.90;;;;;;5458081;26;20280;-64
2024/04/17 10:04:02;;;;;;;2.77;2.00;;;7.30;99.90;;;;;;5457597;26;20260;-65
2024/04/17 10:06:30;;;;;;;4.00;2.30;;;7.10;99.90;;;;;;5446540;26;20345;-65
2024/04/17 10:09:01;;;;;;;2.93;2.20;;;7.00;99.90;;;;;;5454555;26;20308;-64
2024/04/17 10:11:36;;;;;;;3.53;2.10;;;7.00;99.90;;;;;;5453107;26;20667;-65
2024/04/17 10:14:08;;;;;;;3.40;3.10;;;7.10;99.90;;;;;;5456811;26;20250;-65
2024/04/17 10:16:36;;;;;;;6.73;2.53;;;7.20;99.90;;;;;;5460148;26;20233;-65
2024/04/17 10:19:06;;;;;;;3.53;2.20;;;7.20;99.90;;;;;;5456827;26;20271;-65
2024/04/17 10:21:35;;;;;;;4.67;2.63;;;7.20;99.90;;;;;;5449826;26;20318;-65
2024/04/17 10:24:09;;;;;;;3.30;2.50;;;7.00;99.90;;;;;;5454153;25;20288;-65
2024/04/17 10:26:44;;;;;;;2.90;2.20;;;6.90;99.90;;;;;;5447085;26;20306;-65
2024/04/17 10:29:19;;;;;;;5.30;2.67;;;6.80;99.90;;;;;;5451480;26;20665;-65
2024/04/17 10:32:00;;;;;;;2.77;2.57;;;6.70;99.90;;;;;;5434238;26;20998;-64
2024/04/17 10:34:32;;;;;;;4.27;3.33;;;6.60;99.90;;;;;;5453997;26;20841;-65
2024/04/17 10:37:01;;;;;;;2.97;2.77;;;6.70;99.90;;;;;;5448715;26;20277;-65
2024/04/17 10:39:32;;;;;;;4.80;4.33;;;6.70;99.90;;;;;;5459293;26;20257;-66
2024/04/17 10:42:04;;;;;;;2.83;2.73;;;6.90;99.90;;;;;;5457217;25;20320;-66
2024/04/17 10:44:35;;;;;;;4.20;2.60;;;7.20;99.90;;;;;;5452325;25;20244;-65
2024/04/17 10:47:03;;;;;;;2.97;2.47;;;7.50;99.90;;;;;;5461477;25;20308;-65
2024/04/17 10:49:40;;;;;;;3.73;3.33;;;7.80;99.90;;;;;;5459619;26;20264;-66
2024/04/17 10:52:09;;;;;;;3.17;2.90;;;8.10;99.90;;;;;;5445694;26;20237;-65
2024/04/17 10:54:39;;;;;;;2.83;2.73;;;8.40;99.90;;;;;;5446802;26;20280;-65
2024/04/17 10:57:09;;;;;;;3.03;2.80;;;8.40;99.90;;;;;;5443228;26;20257;-66
2024/04/17 10:59:39;;;;;;;3.10;2.83;;;8.20;98.90;;;;;;5457558;25;20287;-65
2024/04/17 11:02:10;;;;;;;2.40;2.20;;;8.10;96.00;;;;;;5455708;26;20288;-65
2024/04/17 11:04:44;;;;;;;2.50;2.30;;;8.00;92.70;;;;;;5451795;26;20268;-66
2024/04/17 11:07:13;;;;;;;3.87;2.80;;;7.90;99.90;;;;;;5439462;26;20623;-66
2024/04/17 11:09:44;;;;;;;5.57;3.43;;;7.80;97.00;;;;;;5441411;26;20253;-65
2024/04/17 11:12:16;;;;;;;3.27;2.93;;;7.80;95.90;;;;;;5439609;26;20276;-65
2024/04/17 11:14:49;;;;;;;3.63;2.60;;;7.70;94.70;;;;;;5449406;26;21209;-65
2024/04/17 11:17:16;;;;;;;2.67;2.30;;;7.70;99.90;;;;;;5455913;25;20295;-65
2024/04/17 11:19:46;;;;;;;3.23;2.50;;;7.60;99.90;;;;;;5457278;26;20232;-65
2024/04/17 11:22:14;;;;;;;2.20;2.10;;;7.70;99.90;;;;;;5451934;26;20241;-65
2024/04/17 11:24:47;;;;;;;5.37;2.40;;;7.80;99.90;;;;;;5449991;26;20254;-65
2024/04/17 11:27:20;;;;;;;2.40;2.23;;;8.00;99.90;;;;;;5460133;26;20749;-65
2024/04/17 11:29:51;;;;;;;2.90;2.30;;;8.20;99.90;;;;;;5461284;25;20253;-66
2024/04/17 11:32:19;;;;;;;2.37;2.27;;;8.30;99.90;;;;;;5485804;26;20252;-65
2024/04/17 11:34:49;;;;;;;2.57;2.13;;;8.30;76.20;;;;;;5460201;26;20246;-64
2024/04/17 11:37:17;;;;;;;2.43;1.90;;;8.30;94.10;;;;;;5455836;26;20781;-66
2024/04/17 11:39:47;;;;;;;2.10;2.00;;;8.40;65.30;;;;;;5457900;26;20257;-66
2024/04/17 11:42:18;;;;;;;2.23;2.00;;;8.60;99.10;;;;;;5463940;25;20256;-66
2024/04/17 11:44:48;;;;;;;2.10;2.03;;;8.90;56.00;;;;;;5459526;26;20260;-65
2024/04/17 11:47:18;;;;;;;3.30;2.70;;;9.40;77.50;;;;;;5454843;26;20291;-65
2024/04/17 11:49:48;;;;;;;1.90;1.80;;;10.00;45.60;;;;;;5451662;26;20271;-65
2024/04/17 11:52:16;;;;;;;2.53;2.37;;;10.30;1.00;;;;;;5457322;26;20249;-66
2024/04/17 11:54:46;;;;;;;2.40;1.87;;;10.50;1.00;;;;;;5449892;25;20299;-66
2024/04/17 11:57:13;;;;;;;2.30;2.10;;;10.50;1.00;;;;;;5452999;26;20256;-66
2024/04/17 11:59:51;;;;;;;2.13;2.00;;;10.30;1.00;;;;;;5448301;26;20265;-66
2024/04/17 12:02:18;;;;;;;2.07;1.97;;;10.10;1.00;;;;;;5454105;25;20950;-66
2024/04/17 12:04:48;;;;;;;3.20;3.00;;;9.90;1.00;;;;;;5457156;25;20229;-65
2024/04/17 12:07:16;;;;;;;2.50;2.40;;;9.80;1.00;;;;;;5450659;26;20592;-66
2024/04/17 12:09:48;;;;;;;2.40;2.30;;;9.80;1.00;;;;;;5448434;26;20260;-66
2024/04/17 12:12:16;;;;;;;2.50;2.40;;;9.80;1.00;;;;;;5438770;26;20280;-66
2024/04/17 12:14:49;;;;;;;2.60;2.40;;;10.00;1.00;;;;;;5451825;26;20257;-66
2024/04/17 12:17:17;;;;;;;2.70;2.50;;;10.20;1.00;;;;;;5455197;26;20313;-66
2024/04/17 12:19:49;;;;;;;2.80;2.30;;;10.20;1.00;;;;;;5451497;26;20328;-65
2024/04/17 12:22:17;;;;;;;3.70;3.00;;;10.30;1.00;;;;;;5455289;26;20262;-66
2024/04/17 12:27:34;;;;;;;3.13;2.83;;;10.60;1.00;;;;;;5463964;25;20321;-66
2024/04/17 12:30:08;;;;;;;4.03;3.13;;;10.80;1.00;;;;;;5452915;26;20261;-66
2024/04/17 12:32:39;;;;;;;5.30;2.40;;;10.90;1.00;;;;;;5452941;25;20360;-66
2024/04/17 12:35:12;;;;;;;1.67;1.63;;;11.00;99.90;;;;;;5446476;26;20283;-65
2024/04/17 12:37:43;;;;;;;3.23;2.00;;;11.10;1.00;;;;;;5455853;26;20245;-61
2024/04/17 12:40:11;;;;;;;5.00;2.10;;;11.30;99.90;;;;;;5448317;26;20270;-66
2024/04/17 12:42:41;;;;;;;2.00;1.80;;;11.50;1.00;;;;;;5463917;25;20353;-66
2024/04/17 12:45:16;;;;;;;2.03;1.83;;;11.80;1.00;;;;;;5453286;26;21028;-66
2024/04/17 12:47:46;;;;;;;2.27;1.63;;;12.40;20.70;;;;;;5460663;26;20284;-66
2024/04/17 12:50:17;;;;;;;2.37;1.87;;;12.80;1.00;;;;;;5458007;26;20283;-66
2024/04/17 12:52:47;;;;;;;3.20;2.00;;;13.20;99.90;;;;;;5438912;25;20271;-66
2024/04/17 12:55:17;;;;;;;2.30;1.80;;;13.40;1.00;;;;;;5456630;26;21125;-67
2024/04/17 12:57:45;;;;;;;1.90;1.80;;;13.60;1.00;;;;;;5439729;26;20297;-67
2024/04/17 13:00:18;;;;;;;4.60;2.00;;;13.70;1.00;;;;;;5466791;26;20258;-67
2024/04/17 13:02:46;;;;;;;2.63;2.13;;;13.40;1.00;;;;;;5435855;26;20639;-67
2024/04/17 13:05:16;;;;;;;2.47;2.00;;;13.00;1.00;;;;;;5455037;25;20292;-66
2024/04/17 13:07:46;;;;;;;2.00;1.90;;;13.20;94.30;;;;;;5442007;26;20274;-66
2024/04/17 13:10:17;;;;;;;3.17;1.93;;;13.50;1.00;;;;;;5441431;26;20279;-66